sensor_id;sensor_type;location;lat;lon;timestamp;temperature;humidity
44215;DHT22;29884;47.450;19.124;2022-07-15T00:02:14;23.10;83.60
44215;DHT22;29884;47.450;19.124;2022-07-15T00:04:41;23.00;84.30
44215;DHT22;29884;47.450;19.124;2022-07-15T00:07:07;23.00;84.60
44215;DHT22;29884;47.450;19.124;2022-07-15T00:09:33;23.00;84.70
44215;DHT22;29884;47.450;19.124;2022-07-15T00:12:17;23.20;84.40
44215;DHT22;29884;47.450;19.124;2022-07-15T00:14:43;23.20;84.60
44215;DHT22;29884;47.450;19.124;2022-07-15T00:17:10;23.30;83.70
44215;DHT22;29884;47.450;19.124;2022-07-15T00:19:36;23.40;83.90
44215;DHT22;29884;47.450;19.124;2022-07-15T00:22:02;23.40;84.20
44215;DHT22;29884;47.450;19.124;2022-07-15T00:24:28;23.40;84.40
44215;DHT22;29884;47.450;19.124;2022-07-15T00:26:54;23.40;84.90
44215;DHT22;29884;47.450;19.124;2022-07-15T00:29:20;23.40;85.00
44215;DHT22;29884;47.450;19.124;2022-07-15T00:31:46;23.50;85.30
44215;DHT22;29884;47.450;19.124;2022-07-15T00:34:12;23.50;85.00
44215;DHT22;29884;47.450;19.124;2022-07-15T00:36:38;23.50;84.90
44215;DHT22;29884;47.450;19.124;2022-07-15T00:39:05;23.50;85.10
44215;DHT22;29884;47.450;19.124;2022-07-15T00:41:40;23.50;85.70
44215;DHT22;29884;47.450;19.124;2022-07-15T00:44:06;23.40;86.00
44215;DHT22;29884;47.450;19.124;2022-07-15T00:46:32;23.30;86.00
44215;DHT22;29884;47.450;19.124;2022-07-15T00:48:59;23.30;86.20
44215;DHT22;29884;47.450;19.124;2022-07-15T00:51:25;23.30;87.20
44215;DHT22;29884;47.450;19.124;2022-07-15T00:53:52;23.30;87.30
44215;DHT22;29884;47.450;19.124;2022-07-15T00:56:21;23.30;88.00
44215;DHT22;29884;47.450;19.124;2022-07-15T00:58:49;23.30;87.70
44215;DHT22;29884;47.450;19.124;2022-07-15T01:01:19;23.40;87.70
44215;DHT22;29884;47.450;19.124;2022-07-15T01:03:48;23.40;87.90
44215;DHT22;29884;47.450;19.124;2022-07-15T01:06:14;23.30;88.20
44215;DHT22;29884;47.450;19.124;2022-07-15T01:08:39;23.30;88.50
44215;DHT22;29884;47.450;19.124;2022-07-15T01:11:05;23.30;88.60
44215;DHT22;29884;47.450;19.124;2022-07-15T01:13:31;23.30;88.80
44215;DHT22;29884;47.450;19.124;2022-07-15T01:15:57;23.20;89.40
44215;DHT22;29884;47.450;19.124;2022-07-15T01:18:23;23.20;89.70
44215;DHT22;29884;47.450;19.124;2022-07-15T01:20:49;23.20;89.80
44215;DHT22;29884;47.450;19.124;2022-07-15T01:23:16;23.20;90.00
44215;DHT22;29884;47.450;19.124;2022-07-15T01:25:41;23.20;90.30
44215;DHT22;29884;47.450;19.124;2022-07-15T01:28:08;23.20;90.50
44215;DHT22;29884;47.450;19.124;2022-07-15T01:30:34;23.20;90.30
44215;DHT22;29884;47.450;19.124;2022-07-15T01:33:01;23.20;90.40
44215;DHT22;29884;47.450;19.124;2022-07-15T01:35:27;23.20;90.60
44215;DHT22;29884;47.450;19.124;2022-07-15T01:37:54;23.10;90.80
44215;DHT22;29884;47.450;19.124;2022-07-15T01:40:20;23.00;91.10
44215;DHT22;29884;47.450;19.124;2022-07-15T01:42:46;23.00;92.00
44215;DHT22;29884;47.450;19.124;2022-07-15T01:45:12;23.00;91.70
44215;DHT22;29884;47.450;19.124;2022-07-15T01:47:45;23.00;91.90
44215;DHT22;29884;47.450;19.124;2022-07-15T01:50:12;23.00;91.90
44215;DHT22;29884;47.450;19.124;2022-07-15T01:52:38;22.90;92.10
44215;DHT22;29884;47.450;19.124;2022-07-15T01:55:06;22.90;92.10
44215;DHT22;29884;47.450;19.124;2022-07-15T01:57:32;22.80;92.40
44215;DHT22;29884;47.450;19.124;2022-07-15T01:59:58;22.80;92.40
44215;DHT22;29884;47.450;19.124;2022-07-15T02:02:25;22.70;92.90
44215;DHT22;29884;47.450;19.124;2022-07-15T02:04:50;22.60;93.10
44215;DHT22;29884;47.450;19.124;2022-07-15T02:07:16;22.60;93.20
44215;DHT22;29884;47.450;19.124;2022-07-15T02:09:42;22.60;93.30
44215;DHT22;29884;47.450;19.124;2022-07-15T02:12:08;22.60;93.40
44215;DHT22;29884;47.450;19.124;2022-07-15T02:14:34;22.50;94.00
44215;DHT22;29884;47.450;19.124;2022-07-15T02:17:01;22.50;94.40
44215;DHT22;29884;47.450;19.124;2022-07-15T02:19:27;22.40;94.60
44215;DHT22;29884;47.450;19.124;2022-07-15T02:21:53;22.40;94.80
44215;DHT22;29884;47.450;19.124;2022-07-15T02:24:19;22.50;95.10
44215;DHT22;29884;47.450;19.124;2022-07-15T02:26:48;22.60;95.50
44215;DHT22;29884;47.450;19.124;2022-07-15T02:29:15;22.90;95.50
44215;DHT22;29884;47.450;19.124;2022-07-15T02:31:41;23.00;95.30
44215;DHT22;29884;47.450;19.124;2022-07-15T02:34:07;23.20;95.00
44215;DHT22;29884;47.450;19.124;2022-07-15T02:36:33;23.30;95.00
44215;DHT22;29884;47.450;19.124;2022-07-15T02:38:59;23.30;94.70
44215;DHT22;29884;47.450;19.124;2022-07-15T02:41:24;23.50;94.60
44215;DHT22;29884;47.450;19.124;2022-07-15T02:43:51;23.60;93.90
44215;DHT22;29884;47.450;19.124;2022-07-15T02:46:17;23.70;93.10
44215;DHT22;29884;47.450;19.124;2022-07-15T02:48:43;23.90;91.90
44215;DHT22;29884;47.450;19.124;2022-07-15T02:51:09;24.00;91.60
44215;DHT22;29884;47.450;19.124;2022-07-15T02:53:35;24.00;91.30
44215;DHT22;29884;47.450;19.124;2022-07-15T02:56:02;24.00;91.10
44215;DHT22;29884;47.450;19.124;2022-07-15T02:58:29;24.00;90.70
44215;DHT22;29884;47.450;19.124;2022-07-15T03:00:57;23.90;90.80
44215;DHT22;29884;47.450;19.124;2022-07-15T03:03:23;24.00;90.60
44215;DHT22;29884;47.450;19.124;2022-07-15T03:05:48;23.90;90.70
44215;DHT22;29884;47.450;19.124;2022-07-15T03:08:16;23.90;90.90
44215;DHT22;29884;47.450;19.124;2022-07-15T03:10:42;23.90;90.90
44215;DHT22;29884;47.450;19.124;2022-07-15T03:13:08;23.90;90.50
44215;DHT22;29884;47.450;19.124;2022-07-15T03:15:34;23.90;90.00
44215;DHT22;29884;47.450;19.124;2022-07-15T03:18:00;24.00;87.50
44215;DHT22;29884;47.450;19.124;2022-07-15T03:20:26;24.20;85.50
44215;DHT22;29884;47.450;19.124;2022-07-15T03:22:52;24.20;85.20
44215;DHT22;29884;47.450;19.124;2022-07-15T03:25:18;24.20;84.50
44215;DHT22;29884;47.450;19.124;2022-07-15T03:27:44;24.20;82.90
44215;DHT22;29884;47.450;19.124;2022-07-15T03:30:09;24.30;82.90
44215;DHT22;29884;47.450;19.124;2022-07-15T03:32:35;24.40;81.50
44215;DHT22;29884;47.450;19.124;2022-07-15T03:35:01;24.40;81.10
44215;DHT22;29884;47.450;19.124;2022-07-15T03:37:27;24.40;81.10
44215;DHT22;29884;47.450;19.124;2022-07-15T03:39:53;24.40;81.70
44215;DHT22;29884;47.450;19.124;2022-07-15T03:42:18;24.30;81.40
44215;DHT22;29884;47.450;19.124;2022-07-15T03:44:44;24.40;80.80
44215;DHT22;29884;47.450;19.124;2022-07-15T03:47:10;24.40;80.60
44215;DHT22;29884;47.450;19.124;2022-07-15T03:49:36;24.30;80.40
44215;DHT22;29884;47.450;19.124;2022-07-15T03:52:02;24.40;79.70
44215;DHT22;29884;47.450;19.124;2022-07-15T03:54:29;24.40;79.30
44215;DHT22;29884;47.450;19.124;2022-07-15T03:56:54;24.40;78.50
44215;DHT22;29884;47.450;19.124;2022-07-15T03:59:20;24.40;78.00
44215;DHT22;29884;47.450;19.124;2022-07-15T04:01:46;24.50;78.30
44215;DHT22;29884;47.450;19.124;2022-07-15T04:04:14;24.50;77.30
44215;DHT22;29884;47.450;19.124;2022-07-15T04:06:40;24.40;77.00
44215;DHT22;29884;47.450;19.124;2022-07-15T04:09:06;24.50;77.00
44215;DHT22;29884;47.450;19.124;2022-07-15T04:11:33;24.50;76.70
44215;DHT22;29884;47.450;19.124;2022-07-15T04:13:59;24.50;77.70
44215;DHT22;29884;47.450;19.124;2022-07-15T04:16:25;24.40;77.50
44215;DHT22;29884;47.450;19.124;2022-07-15T04:18:50;24.40;77.80
44215;DHT22;29884;47.450;19.124;2022-07-15T04:21:17;24.30;78.20
44215;DHT22;29884;47.450;19.124;2022-07-15T04:23:43;24.20;78.60
44215;DHT22;29884;47.450;19.124;2022-07-15T04:26:09;24.20;78.50
44215;DHT22;29884;47.450;19.124;2022-07-15T04:28:34;24.20;78.00
44215;DHT22;29884;47.450;19.124;2022-07-15T04:31:00;24.30;78.30
44215;DHT22;29884;47.450;19.124;2022-07-15T04:33:26;24.30;78.60
44215;DHT22;29884;47.450;19.124;2022-07-15T04:35:52;24.30;78.80
44215;DHT22;29884;47.450;19.124;2022-07-15T04:38:18;24.30;79.00
44215;DHT22;29884;47.450;19.124;2022-07-15T04:40:44;24.20;79.70
44215;DHT22;29884;47.450;19.124;2022-07-15T04:43:10;24.20;80.10
44215;DHT22;29884;47.450;19.124;2022-07-15T04:45:35;24.10;80.70
44215;DHT22;29884;47.450;19.124;2022-07-15T04:48:02;24.00;81.90
44215;DHT22;29884;47.450;19.124;2022-07-15T04:50:27;23.90;82.40
44215;DHT22;29884;47.450;19.124;2022-07-15T04:53:11;23.80;83.20
44215;DHT22;29884;47.450;19.124;2022-07-15T04:55:37;23.80;84.20
44215;DHT22;29884;47.450;19.124;2022-07-15T04:58:03;23.70;84.70
44215;DHT22;29884;47.450;19.124;2022-07-15T05:00:29;23.70;84.70
44215;DHT22;29884;47.450;19.124;2022-07-15T05:02:55;23.60;86.20
44215;DHT22;29884;47.450;19.124;2022-07-15T05:05:21;23.50;88.50
44215;DHT22;29884;47.450;19.124;2022-07-15T05:07:47;23.30;88.80
44215;DHT22;29884;47.450;19.124;2022-07-15T05:10:13;23.30;89.20
44215;DHT22;29884;47.450;19.124;2022-07-15T05:12:39;23.20;89.50
44215;DHT22;29884;47.450;19.124;2022-07-15T05:15:05;23.10;90.30
44215;DHT22;29884;47.450;19.124;2022-07-15T05:17:32;23.00;90.60
44215;DHT22;29884;47.450;19.124;2022-07-15T05:19:58;22.90;91.40
44215;DHT22;29884;47.450;19.124;2022-07-15T05:22:24;22.70;91.70
44215;DHT22;29884;47.450;19.124;2022-07-15T05:24:50;22.60;92.60
44215;DHT22;29884;47.450;19.124;2022-07-15T05:27:17;22.50;93.60
44215;DHT22;29884;47.450;19.124;2022-07-15T05:29:42;22.40;94.70
44215;DHT22;29884;47.450;19.124;2022-07-15T05:32:10;22.30;95.70
44215;DHT22;29884;47.450;19.124;2022-07-15T05:34:36;22.10;96.60
44215;DHT22;29884;47.450;19.124;2022-07-15T05:37:02;22.10;97.10
44215;DHT22;29884;47.450;19.124;2022-07-15T05:39:27;22.00;97.20
44215;DHT22;29884;47.450;19.124;2022-07-15T05:41:53;21.90;97.10
44215;DHT22;29884;47.450;19.124;2022-07-15T05:44:25;21.90;97.60
44215;DHT22;29884;47.450;19.124;2022-07-15T05:46:51;21.80;98.10
44215;DHT22;29884;47.450;19.124;2022-07-15T05:49:16;21.80;98.90
44215;DHT22;29884;47.450;19.124;2022-07-15T05:51:42;21.70;99.80
44215;DHT22;29884;47.450;19.124;2022-07-15T05:54:10;21.60;99.90
44215;DHT22;29884;47.450;19.124;2022-07-15T05:56:39;21.50;99.90
44215;DHT22;29884;47.450;19.124;2022-07-15T05:59:05;21.50;99.90
44215;DHT22;29884;47.450;19.124;2022-07-15T06:01:31;21.50;99.90
44215;DHT22;29884;47.450;19.124;2022-07-15T06:03:57;21.40;99.90
44215;DHT22;29884;47.450;19.124;2022-07-15T06:06:23;21.40;99.90
44215;DHT22;29884;47.450;19.124;2022-07-15T06:08:48;21.30;99.90
44215;DHT22;29884;47.450;19.124;2022-07-15T06:11:14;21.20;99.90
44215;DHT22;29884;47.450;19.124;2022-07-15T06:13:40;21.20;99.90
44215;DHT22;29884;47.450;19.124;2022-07-15T06:16:07;21.00;99.90
44215;DHT22;29884;47.450;19.124;2022-07-15T06:18:33;20.90;99.90
44215;DHT22;29884;47.450;19.124;2022-07-15T06:20:59;20.80;99.90
44215;DHT22;29884;47.450;19.124;2022-07-15T06:23:24;20.70;99.90
44215;DHT22;29884;47.450;19.124;2022-07-15T06:25:50;20.60;99.90
44215;DHT22;29884;47.450;19.124;2022-07-15T06:28:16;20.40;99.90
44215;DHT22;29884;47.450;19.124;2022-07-15T06:30:42;20.40;99.90
44215;DHT22;29884;47.450;19.124;2022-07-15T06:33:07;20.40;99.90
44215;DHT22;29884;47.450;19.124;2022-07-15T06:35:33;20.40;99.90
44215;DHT22;29884;47.450;19.124;2022-07-15T06:37:58;20.40;99.90
44215;DHT22;29884;47.450;19.124;2022-07-15T06:40:25;20.40;99.90
44215;DHT22;29884;47.450;19.124;2022-07-15T06:42:50;20.40;99.90
44215;DHT22;29884;47.450;19.124;2022-07-15T06:45:16;20.40;99.90
44215;DHT22;29884;47.450;19.124;2022-07-15T06:47:42;20.40;99.90
44215;DHT22;29884;47.450;19.124;2022-07-15T06:50:09;20.40;99.90
44215;DHT22;29884;47.450;19.124;2022-07-15T06:52:35;20.50;99.90
44215;DHT22;29884;47.450;19.124;2022-07-15T06:55:02;20.50;99.90
44215;DHT22;29884;47.450;19.124;2022-07-15T06:57:28;20.40;99.90
44215;DHT22;29884;47.450;19.124;2022-07-15T06:59:54;20.50;99.90
44215;DHT22;29884;47.450;19.124;2022-07-15T07:02:20;20.60;99.90
44215;DHT22;29884;47.450;19.124;2022-07-15T07:04:45;20.60;99.90
44215;DHT22;29884;47.450;19.124;2022-07-15T07:07:11;20.60;99.90
44215;DHT22;29884;47.450;19.124;2022-07-15T07:09:37;20.60;99.90
44215;DHT22;29884;47.450;19.124;2022-07-15T07:12:03;20.60;99.90
44215;DHT22;29884;47.450;19.124;2022-07-15T07:14:29;20.60;99.90
44215;DHT22;29884;47.450;19.124;2022-07-15T07:16:54;20.60;99.90
44215;DHT22;29884;47.450;19.124;2022-07-15T07:19:21;20.60;99.90
44215;DHT22;29884;47.450;19.124;2022-07-15T07:21:46;20.50;99.90
44215;DHT22;29884;47.450;19.124;2022-07-15T07:24:12;20.50;99.90
44215;DHT22;29884;47.450;19.124;2022-07-15T07:26:38;20.60;99.90
44215;DHT22;29884;47.450;19.124;2022-07-15T07:29:04;20.60;99.90
44215;DHT22;29884;47.450;19.124;2022-07-15T07:31:30;20.60;99.90
44215;DHT22;29884;47.450;19.124;2022-07-15T07:33:57;20.50;99.90
44215;DHT22;29884;47.450;19.124;2022-07-15T07:36:24;20.50;99.90
44215;DHT22;29884;47.450;19.124;2022-07-15T07:38:50;20.50;99.90
44215;DHT22;29884;47.450;19.124;2022-07-15T07:41:16;20.50;99.90
44215;DHT22;29884;47.450;19.124;2022-07-15T07:43:42;20.50;99.90
44215;DHT22;29884;47.450;19.124;2022-07-15T07:46:07;20.50;99.90
44215;DHT22;29884;47.450;19.124;2022-07-15T07:48:33;20.50;99.90
44215;DHT22;29884;47.450;19.124;2022-07-15T07:51:00;20.50;99.90
44215;DHT22;29884;47.450;19.124;2022-07-15T07:53:26;20.40;99.90
44215;DHT22;29884;47.450;19.124;2022-07-15T07:55:52;20.40;99.90
44215;DHT22;29884;47.450;19.124;2022-07-15T07:58:18;20.40;99.90
44215;DHT22;29884;47.450;19.124;2022-07-15T08:00:46;20.50;99.90
44215;DHT22;29884;47.450;19.124;2022-07-15T08:03:12;20.50;99.90
44215;DHT22;29884;47.450;19.124;2022-07-15T08:05:38;20.50;99.90
44215;DHT22;29884;47.450;19.124;2022-07-15T08:08:12;20.40;99.90
44215;DHT22;29884;47.450;19.124;2022-07-15T08:10:40;20.40;99.90
44215;DHT22;29884;47.450;19.124;2022-07-15T08:13:06;20.40;99.90
44215;DHT22;29884;47.450;19.124;2022-07-15T08:15:32;20.40;99.90
44215;DHT22;29884;47.450;19.124;2022-07-15T08:17:58;20.50;99.90
44215;DHT22;29884;47.450;19.124;2022-07-15T08:20:24;20.50;99.90
44215;DHT22;29884;47.450;19.124;2022-07-15T08:22:50;20.50;99.90
44215;DHT22;29884;47.450;19.124;2022-07-15T08:25:27;20.50;99.90
44215;DHT22;29884;47.450;19.124;2022-07-15T08:27:53;20.60;99.90
44215;DHT22;29884;47.450;19.124;2022-07-15T08:30:19;20.60;99.90
44215;DHT22;29884;47.450;19.124;2022-07-15T08:32:45;20.70;99.90
44215;DHT22;29884;47.450;19.124;2022-07-15T08:35:10;20.80;99.90
44215;DHT22;29884;47.450;19.124;2022-07-15T08:37:36;20.90;99.90
44215;DHT22;29884;47.450;19.124;2022-07-15T08:40:04;21.00;99.90
44215;DHT22;29884;47.450;19.124;2022-07-15T08:42:31;21.00;99.90
44215;DHT22;29884;47.450;19.124;2022-07-15T08:44:57;21.00;99.90
44215;DHT22;29884;47.450;19.124;2022-07-15T08:47:23;21.10;99.90
44215;DHT22;29884;47.450;19.124;2022-07-15T08:49:57;21.10;99.90
44215;DHT22;29884;47.450;19.124;2022-07-15T08:52:24;21.20;99.90
44215;DHT22;29884;47.450;19.124;2022-07-15T08:54:51;21.20;99.90
44215;DHT22;29884;47.450;19.124;2022-07-15T08:57:18;21.20;99.90
44215;DHT22;29884;47.450;19.124;2022-07-15T08:59:43;21.10;99.90
44215;DHT22;29884;47.450;19.124;2022-07-15T09:02:18;21.10;99.90
44215;DHT22;29884;47.450;19.124;2022-07-15T09:08:02;21.10;99.90
44215;DHT22;29884;47.450;19.124;2022-07-15T09:13:21;21.10;99.90
44215;DHT22;29884;47.450;19.124;2022-07-15T09:15:47;21.10;99.90
44215;DHT22;29884;47.450;19.124;2022-07-15T09:18:16;21.10;99.90
44215;DHT22;29884;47.450;19.124;2022-07-15T09:20:43;21.20;99.90
44215;DHT22;29884;47.450;19.124;2022-07-15T09:23:11;21.20;99.90
44215;DHT22;29884;47.450;19.124;2022-07-15T09:25:39;21.20;99.90
44215;DHT22;29884;47.450;19.124;2022-07-15T09:28:07;21.20;99.90
44215;DHT22;29884;47.450;19.124;2022-07-15T09:30:38;21.20;99.90
44215;DHT22;29884;47.450;19.124;2022-07-15T09:33:26;21.20;99.90
44215;DHT22;29884;47.450;19.124;2022-07-15T09:38:54;21.10;99.90
44215;DHT22;29884;47.450;19.124;2022-07-15T09:44:12;21.00;99.90
44215;DHT22;29884;47.450;19.124;2022-07-15T09:49:31;21.00;99.90
44215;DHT22;29884;47.450;19.124;2022-07-15T09:52:05;21.10;99.90
44215;DHT22;29884;47.450;19.124;2022-07-15T09:54:39;21.10;99.90
44215;DHT22;29884;47.450;19.124;2022-07-15T09:57:08;21.20;99.90
44215;DHT22;29884;47.450;19.124;2022-07-15T09:59:35;21.20;99.90
44215;DHT22;29884;47.450;19.124;2022-07-15T10:02:01;21.20;99.90
44215;DHT22;29884;47.450;19.124;2022-07-15T10:04:28;21.20;99.90
44215;DHT22;29884;47.450;19.124;2022-07-15T10:06:55;21.30;99.90
44215;DHT22;29884;47.450;19.124;2022-07-15T10:09:29;21.30;99.90
44215;DHT22;29884;47.450;19.124;2022-07-15T10:12:21;21.30;99.90
44215;DHT22;29884;47.450;19.124;2022-07-15T10:23:16;21.40;99.90
44215;DHT22;29884;47.450;19.124;2022-07-15T10:26:04;21.30;99.90
44215;DHT22;29884;47.450;19.124;2022-07-15T10:28:52;21.30;99.90
44215;DHT22;29884;47.450;19.124;2022-07-15T10:31:23;21.30;99.90
44215;DHT22;29884;47.450;19.124;2022-07-15T10:39:18;21.10;99.90
44215;DHT22;29884;47.450;19.124;2022-07-15T10:41:57;21.20;99.90
44215;DHT22;29884;47.450;19.124;2022-07-15T10:44:29;21.20;99.90
44215;DHT22;29884;47.450;19.124;2022-07-15T10:52:21;21.80;99.90
44215;DHT22;29884;47.450;19.124;2022-07-15T10:57:18;22.20;99.90
44215;DHT22;29884;47.450;19.124;2022-07-15T10:59:53;22.50;99.90
44215;DHT22;29884;47.450;19.124;2022-07-15T11:02:20;22.90;99.90
44215;DHT22;29884;47.450;19.124;2022-07-15T11:04:48;23.30;99.90
44215;DHT22;29884;47.450;19.124;2022-07-15T11:15:02;24.20;99.90
44215;DHT22;29884;47.450;19.124;2022-07-15T11:19:57;24.20;96.70
44215;DHT22;29884;47.450;19.124;2022-07-15T11:22:27;24.20;93.10
44215;DHT22;29884;47.450;19.124;2022-07-15T11:24:54;24.20;91.80
44215;DHT22;29884;47.450;19.124;2022-07-15T11:27:22;24.30;91.00
44215;DHT22;29884;47.450;19.124;2022-07-15T11:29:54;24.40;88.10
44215;DHT22;29884;47.450;19.124;2022-07-15T11:32:22;24.50;87.10
44215;DHT22;29884;47.450;19.124;2022-07-15T11:34:54;24.60;81.60
44215;DHT22;29884;47.450;19.124;2022-07-15T11:37:29;24.80;77.80
44215;DHT22;29884;47.450;19.124;2022-07-15T11:40:24;24.90;77.90
44215;DHT22;29884;47.450;19.124;2022-07-15T11:43:14;25.00;74.50
44215;DHT22;29884;47.450;19.124;2022-07-15T11:45:59;25.30;73.80
44215;DHT22;29884;47.450;19.124;2022-07-15T11:48:25;25.40;70.20
44215;DHT22;29884;47.450;19.124;2022-07-15T11:50:53;25.40;68.50
44215;DHT22;29884;47.450;19.124;2022-07-15T11:53:19;25.40;65.50
44215;DHT22;29884;47.450;19.124;2022-07-15T11:55:58;25.40;61.70
44215;DHT22;29884;47.450;19.124;2022-07-15T11:58:32;25.50;58.80
44215;DHT22;29884;47.450;19.124;2022-07-15T12:00:59;25.50;58.40
44215;DHT22;29884;47.450;19.124;2022-07-15T12:03:37;25.60;57.60
44215;DHT22;29884;47.450;19.124;2022-07-15T12:06:24;25.50;57.60
44215;DHT22;29884;47.450;19.124;2022-07-15T12:08:53;25.50;55.90
44215;DHT22;29884;47.450;19.124;2022-07-15T12:11:23;25.40;56.60
44215;DHT22;29884;47.450;19.124;2022-07-15T12:14:02;25.40;55.10
44215;DHT22;29884;47.450;19.124;2022-07-15T12:16:35;25.30;55.00
44215;DHT22;29884;47.450;19.124;2022-07-15T12:19:06;25.30;54.50
44215;DHT22;29884;47.450;19.124;2022-07-15T12:21:34;25.30;54.50
44215;DHT22;29884;47.450;19.124;2022-07-15T12:24:21;25.30;54.80
44215;DHT22;29884;47.450;19.124;2022-07-15T12:29:18;25.60;55.80
44215;DHT22;29884;47.450;19.124;2022-07-15T12:31:56;25.70;55.90
44215;DHT22;29884;47.450;19.124;2022-07-15T12:37:12;26.40;55.10
44215;DHT22;29884;47.450;19.124;2022-07-15T12:40:09;27.10;53.80
44215;DHT22;29884;47.450;19.124;2022-07-15T12:42:45;27.60;53.90
44215;DHT22;29884;47.450;19.124;2022-07-15T12:45:27;28.00;52.20
44215;DHT22;29884;47.450;19.124;2022-07-15T12:48:11;28.20;52.10
44215;DHT22;29884;47.450;19.124;2022-07-15T12:53:16;27.90;50.90
44215;DHT22;29884;47.450;19.124;2022-07-15T12:55:45;28.00;50.70
44215;DHT22;29884;47.450;19.124;2022-07-15T12:58:16;28.40;50.50
44215;DHT22;29884;47.450;19.124;2022-07-15T13:00:44;28.30;49.20
44215;DHT22;29884;47.450;19.124;2022-07-15T13:03:20;28.40;49.70
44215;DHT22;29884;47.450;19.124;2022-07-15T13:05:48;28.60;49.80
44215;DHT22;29884;47.450;19.124;2022-07-15T13:08:17;28.30;50.10
44215;DHT22;29884;47.450;19.124;2022-07-15T13:10:46;28.50;49.70
44215;DHT22;29884;47.450;19.124;2022-07-15T13:13:16;28.70;49.20
44215;DHT22;29884;47.450;19.124;2022-07-15T13:15:43;28.80;49.40
44215;DHT22;29884;47.450;19.124;2022-07-15T13:18:09;29.00;48.00
44215;DHT22;29884;47.450;19.124;2022-07-15T13:20:35;28.90;47.40
44215;DHT22;29884;47.450;19.124;2022-07-15T13:23:02;28.50;48.00
44215;DHT22;29884;47.450;19.124;2022-07-15T13:25:29;28.20;48.20
44215;DHT22;29884;47.450;19.124;2022-07-15T13:27:56;28.20;48.40
44215;DHT22;29884;47.450;19.124;2022-07-15T13:30:23;28.80;48.30
44215;DHT22;29884;47.450;19.124;2022-07-15T13:32:48;29.20;47.60
44215;DHT22;29884;47.450;19.124;2022-07-15T13:35:15;29.20;47.70
44215;DHT22;29884;47.450;19.124;2022-07-15T13:37:42;29.40;46.50
44215;DHT22;29884;47.450;19.124;2022-07-15T13:40:10;29.40;45.50
44215;DHT22;29884;47.450;19.124;2022-07-15T13:42:36;29.00;45.00
44215;DHT22;29884;47.450;19.124;2022-07-15T13:45:02;28.70;44.80
44215;DHT22;29884;47.450;19.124;2022-07-15T13:47:28;28.40;43.80
44215;DHT22;29884;47.450;19.124;2022-07-15T13:49:56;28.50;44.30
44215;DHT22;29884;47.450;19.124;2022-07-15T13:52:47;28.40;44.70
44215;DHT22;29884;47.450;19.124;2022-07-15T13:55:14;28.80;44.30
44215;DHT22;29884;47.450;19.124;2022-07-15T13:57:41;28.70;43.90
44215;DHT22;29884;47.450;19.124;2022-07-15T14:00:10;28.60;43.40
44215;DHT22;29884;47.450;19.124;2022-07-15T14:02:40;28.70;43.70
44215;DHT22;29884;47.450;19.124;2022-07-15T14:05:06;29.00;42.90
44215;DHT22;29884;47.450;19.124;2022-07-15T14:07:33;28.80;41.50
44215;DHT22;29884;47.450;19.124;2022-07-15T14:09:58;28.80;40.70
44215;DHT22;29884;47.450;19.124;2022-07-15T14:12:24;28.80;41.70
44215;DHT22;29884;47.450;19.124;2022-07-15T14:14:50;28.80;41.80
44215;DHT22;29884;47.450;19.124;2022-07-15T14:17:16;28.60;42.50
44215;DHT22;29884;47.450;19.124;2022-07-15T14:19:42;28.80;41.90
44215;DHT22;29884;47.450;19.124;2022-07-15T14:22:07;28.40;41.50
44215;DHT22;29884;47.450;19.124;2022-07-15T14:24:33;27.90;42.00
44215;DHT22;29884;47.450;19.124;2022-07-15T14:26:59;28.00;42.20
44215;DHT22;29884;47.450;19.124;2022-07-15T14:29:25;28.00;41.50
44215;DHT22;29884;47.450;19.124;2022-07-15T14:31:51;27.70;41.50
44215;DHT22;29884;47.450;19.124;2022-07-15T14:34:17;27.40;42.10
44215;DHT22;29884;47.450;19.124;2022-07-15T14:36:43;27.20;42.60
44215;DHT22;29884;47.450;19.124;2022-07-15T14:39:08;27.20;43.10
44215;DHT22;29884;47.450;19.124;2022-07-15T14:41:34;27.20;43.50
44215;DHT22;29884;47.450;19.124;2022-07-15T14:44:02;27.20;43.90
44215;DHT22;29884;47.450;19.124;2022-07-15T14:46:28;27.20;44.00
44215;DHT22;29884;47.450;19.124;2022-07-15T14:48:53;27.20;44.30
44215;DHT22;29884;47.450;19.124;2022-07-15T14:51:19;27.20;44.40
44215;DHT22;29884;47.450;19.124;2022-07-15T14:53:45;27.30;44.20
44215;DHT22;29884;47.450;19.124;2022-07-15T14:56:11;27.40;43.40
44215;DHT22;29884;47.450;19.124;2022-07-15T14:58:37;27.60;43.90
44215;DHT22;29884;47.450;19.124;2022-07-15T15:01:02;27.50;43.40
44215;DHT22;29884;47.450;19.124;2022-07-15T15:03:28;27.30;43.80
44215;DHT22;29884;47.450;19.124;2022-07-15T15:05:55;27.40;44.30
44215;DHT22;29884;47.450;19.124;2022-07-15T15:08:22;27.30;44.30
44215;DHT22;29884;47.450;19.124;2022-07-15T15:10:48;27.70;43.60
44215;DHT22;29884;47.450;19.124;2022-07-15T15:13:13;27.90;42.40
44215;DHT22;29884;47.450;19.124;2022-07-15T15:15:39;27.90;41.70
44215;DHT22;29884;47.450;19.124;2022-07-15T15:18:05;27.90;41.70
44215;DHT22;29884;47.450;19.124;2022-07-15T15:20:31;28.00;40.80
44215;DHT22;29884;47.450;19.124;2022-07-15T15:22:57;27.50;40.40
44215;DHT22;29884;47.450;19.124;2022-07-15T15:25:23;27.20;40.60
44215;DHT22;29884;47.450;19.124;2022-07-15T15:28:07;26.80;40.80
44215;DHT22;29884;47.450;19.124;2022-07-15T15:30:33;26.70;41.70
44215;DHT22;29884;47.450;19.124;2022-07-15T15:32:59;26.60;42.20
44215;DHT22;29884;47.450;19.124;2022-07-15T15:35:25;26.60;43.40
44215;DHT22;29884;47.450;19.124;2022-07-15T15:37:51;26.70;43.10
44215;DHT22;29884;47.450;19.124;2022-07-15T15:40:17;26.60;42.30
44215;DHT22;29884;47.450;19.124;2022-07-15T15:42:42;26.60;42.70
44215;DHT22;29884;47.450;19.124;2022-07-15T15:45:09;26.90;43.00
44215;DHT22;29884;47.450;19.124;2022-07-15T15:47:35;26.80;43.30
44215;DHT22;29884;47.450;19.124;2022-07-15T15:50:01;26.90;43.70
44215;DHT22;29884;47.450;19.124;2022-07-15T15:52:27;26.80;43.30
44215;DHT22;29884;47.450;19.124;2022-07-15T15:54:52;26.50;44.00
44215;DHT22;29884;47.450;19.124;2022-07-15T15:57:18;26.40;44.30
44215;DHT22;29884;47.450;19.124;2022-07-15T15:59:44;26.40;45.00
44215;DHT22;29884;47.450;19.124;2022-07-15T16:02:10;26.50;45.40
44215;DHT22;29884;47.450;19.124;2022-07-15T16:04:36;26.40;46.50
44215;DHT22;29884;47.450;19.124;2022-07-15T16:07:02;26.40;46.40
44215;DHT22;29884;47.450;19.124;2022-07-15T16:09:28;26.30;46.70
44215;DHT22;29884;47.450;19.124;2022-07-15T16:11:54;26.30;46.50
44215;DHT22;29884;47.450;19.124;2022-07-15T16:14:20;26.40;46.20